首页
METAR-TAF:

METAR-TAF

机场 :

Tarvisio, 意大利

纬度: 46-30N, 经度: 013-35E, 海拔: 777米

当前天气观测

该预报发布于1小时和11分钟前的09:55 UTC
风速2节,风向
温度 5°C
湿度 87%
气压 1013 hPa
能见度10公里或以上
散云层高于2500英尺

METAR: LIVO 220955Z 17002KT 9999 SCT025 05/03 Q1013 RMK SCT VIS MIN 9999

时间: 12:06 (11:06 UTC)


TAF: 丢失

超过4000个机场的气象观测和天气预报(METAR&TAF报告)。

可查询的气象台以黄色和红色小点在地图上表示。

将鼠标移到小点上方,可查看气象台名称。

然后点击查看天气观测和预报。

如需切换地图:点击带黑十字的绿色按钮放大地图;点击带横线的绿色按钮缩小地图;或者点击绿色箭头查看邻近地区的地图。


METAR-TAF: